createdAt,value
2023-01-01T09:03:39.744Z,80.00
2023-01-01T09:06:06.601Z,81.20
2023-01-01T09:08:33.593Z,81.90
2023-01-01T09:11:01.850Z,82.10
2023-01-01T09:13:29.543Z,81.20
2023-01-01T09:15:57.040Z,82.30
2023-01-01T09:18:23.724Z,82.30
2023-01-01T09:20:50.432Z,82.30
2023-01-01T09:23:18.704Z,81.40
2023-01-01T09:25:45.359Z,80.90
2023-01-01T09:28:14.047Z,81.10
2023-01-01T09:30:43.766Z,81.40
2023-01-01T09:33:10.392Z,81.20
2023-01-01T09:35:38.509Z,80.90
2023-01-01T09:38:05.249Z,81.50
2023-01-01T09:40:56.982Z,82.10
2023-01-01T09:43:44.956Z,81.00
2023-01-01T09:46:12.483Z,80.30
2023-01-01T09:48:46.980Z,80.70
2023-01-01T09:51:18.013Z,81.90
2023-01-01T09:53:58.064Z,80.70
2023-01-01T09:56:27.511Z,80.40
2023-01-01T09:58:56.834Z,80.80
2023-01-01T10:01:40.015Z,79.90
2023-01-01T10:04:21.296Z,80.10
2023-01-01T10:06:58.642Z,79.50
2023-01-01T10:09:40.680Z,79.00
2023-01-01T10:12:39.216Z,78.90
2023-01-01T10:15:26.030Z,78.00
2023-01-01T10:20:47.579Z,77.00
2023-01-01T10:23:17.264Z,77.00
2023-01-01T10:25:44.838Z,78.40
2023-01-01T10:28:23.714Z,78.40
2023-01-01T10:30:53.120Z,77.70
2023-01-01T10:33:19.787Z,77.70
2023-01-01T10:35:51.427Z,78.80
2023-01-01T10:38:26.171Z,77.70
2023-01-01T10:40:58.406Z,78.00
2023-01-01T10:43:25.081Z,79.00
2023-01-01T10:45:54.797Z,77.50
2023-01-01T10:48:24.136Z,76.80
2023-01-01T10:50:53.563Z,77.30
2023-01-01T10:53:30.887Z,77.00
2023-01-01T10:55:59.683Z,76.30
2023-01-01T10:58:37.265Z,76.90
2023-01-01T11:01:06.518Z,76.70
2023-01-01T11:03:34.329Z,78.60
2023-01-01T11:06:04.042Z,77.90
2023-01-01T11:08:33.585Z,78.00
2023-01-01T11:11:02.020Z,78.20
2023-01-01T11:13:30.966Z,79.10
2023-01-01T11:15:58.415Z,79.50
2023-01-01T11:18:35.536Z,77.80
2023-01-01T11:21:05.243Z,78.30
2023-01-01T11:23:38.588Z,77.40
2023-01-01T11:26:19.454Z,77.50
2023-01-01T11:28:59.292Z,77.50
2023-01-01T11:31:30.324Z,77.10
2023-01-01T11:33:57.581Z,78.30
2023-01-01T11:36:32.983Z,77.10
2023-01-01T11:39:14.113Z,75.80
2023-01-01T11:41:49.900Z,75.40
2023-01-01T11:44:30.193Z,76.00
2023-01-01T11:46:57.811Z,74.50
2023-01-01T11:49:28.716Z,74.40
2023-01-01T11:51:55.584Z,74.40
2023-01-01T11:54:34.254Z,75.80
2023-01-01T11:57:16.997Z,74.30
2023-01-01T11:59:53.568Z,74.40
2023-01-01T12:02:40.376Z,75.00
2023-01-01T12:05:20.382Z,75.70
2023-01-01T12:07:47.784Z,75.20
2023-01-01T12:10:27.783Z,75.90
2023-01-01T12:13:00.560Z,76.70
2023-01-01T12:15:35.719Z,75.80
2023-01-01T12:18:35.063Z,76.50
2023-01-01T12:21:05.622Z,76.50
2023-01-01T12:23:32.633Z,77.30
2023-01-01T12:26:11.280Z,77.50
2023-01-01T12:28:58.943Z,76.70
2023-01-01T12:31:44.308Z,77.20
2023-01-01T12:34:40.525Z,77.30
2023-01-01T12:37:13.326Z,76.90
2023-01-01T12:43:03.020Z,78.10
2023-01-01T12:45:41.735Z,78.30
2023-01-01T12:48:20.041Z,77.90
2023-01-01T12:51:03.118Z,78.00
2023-01-01T12:53:44.582Z,78.70
2023-01-01T12:56:20.706Z,77.70
2023-01-01T12:59:03.103Z,78.20
2023-01-01T13:01:36.049Z,79.00
2023-01-01T13:04:10.792Z,78.00
2023-01-01T13:06:48.854Z,77.40
2023-01-01T13:14:55.205Z,79.10
2023-01-01T13:17:25.037Z,78.40
2023-01-01T13:20:11.637Z,78.20
2023-01-01T13:22:42.081Z,78.50
2023-01-01T13:25:11.513Z,79.00
2023-01-01T13:28:03.144Z,79.20
2023-01-01T13:30:36.191Z,78.10
2023-01-01T13:33:29.000Z,78.50
2023-01-01T13:36:11.876Z,78.20
2023-01-01T13:38:55.624Z,79.10
2023-01-01T13:41:43.166Z,82.80
2023-01-01T13:44:09.795Z,80.00
2023-01-01T13:46:39.616Z,80.40
2023-01-01T13:49:13.553Z,80.80
2023-01-01T13:52:08.866Z,79.80
2023-01-01T13:54:56.381Z,80.60
2023-01-01T13:57:44.725Z,80.40
2023-01-01T14:00:24.632Z,80.70
2023-01-01T14:03:07.218Z,80.80
2023-01-01T14:05:56.209Z,81.50
2023-01-01T14:08:34.957Z,82.20
2023-01-01T14:11:03.367Z,80.70
2023-01-01T14:13:38.754Z,80.00
2023-01-01T14:16:10.703Z,79.10
2023-01-01T14:18:45.210Z,80.20
2023-01-01T14:21:21.554Z,79.80
2023-01-01T14:23:51.621Z,80.00
2023-01-01T14:26:21.139Z,80.60
2023-01-01T14:28:48.190Z,79.90
2023-01-01T14:31:18.835Z,80.60
2023-01-01T14:33:45.963Z,80.80
2023-01-01T14:36:24.598Z,80.40
2023-01-01T14:38:53.682Z,81.00
2023-01-01T14:41:32.076Z,81.20
2023-01-01T14:44:10.580Z,81.70
2023-01-01T14:46:50.854Z,81.60
2023-01-01T14:49:36.093Z,81.50
2023-01-01T14:52:15.631Z,81.70
2023-01-01T14:54:44.600Z,82.60
2023-01-01T14:57:16.354Z,81.90
2023-01-01T14:59:54.501Z,81.00
2023-01-01T15:02:24.196Z,81.40
2023-01-01T15:04:51.711Z,81.10
2023-01-01T15:07:27.571Z,81.70
2023-01-01T15:09:56.763Z,82.40
2023-01-01T15:12:24.166Z,82.00
2023-01-01T15:14:52.819Z,82.80
2023-01-01T15:17:22.083Z,82.90
2023-01-01T15:20:21.231Z,82.60
2023-01-01T15:22:48.942Z,81.60
2023-01-01T15:25:18.235Z,82.40
2023-01-01T15:27:50.069Z,82.00
2023-01-01T15:30:29.688Z,82.00
2023-01-01T15:33:05.221Z,82.50
2023-01-01T15:35:33.905Z,82.10
2023-01-01T15:38:23.748Z,82.50
2023-01-01T15:40:53.510Z,81.80
2023-01-01T15:43:30.394Z,81.00
2023-01-01T15:46:21.005Z,81.80
2023-01-01T15:48:52.412Z,81.60
2023-01-01T15:51:24.725Z,81.80
2023-01-01T15:54:06.138Z,82.10
2023-01-01T15:56:39.127Z,81.90
2023-01-01T15:59:18.567Z,81.40
2023-01-01T16:01:45.557Z,81.60
2023-01-01T16:04:28.284Z,82.30
2023-01-01T16:06:57.739Z,81.70
2023-01-01T16:09:24.422Z,81.80
2023-01-01T16:11:53.198Z,82.00
2023-01-01T16:14:20.040Z,82.00
2023-01-01T16:16:55.005Z,82.50
2023-01-01T16:19:22.996Z,82.00
2023-01-01T16:21:49.647Z,81.30
2023-01-01T16:24:18.516Z,81.40
2023-01-01T16:26:45.972Z,81.20
2023-01-01T16:29:12.800Z,80.90
2023-01-01T16:31:40.255Z,81.50
2023-01-01T16:34:07.360Z,80.30
2023-01-01T16:36:37.082Z,80.60
2023-01-01T16:39:03.828Z,79.80
2023-01-01T16:41:30.490Z,67.50
2023-01-01T16:43:58.109Z,66.80
2023-01-01T16:46:26.540Z,66.30
2023-01-01T16:48:53.429Z,66.00
2023-01-01T16:51:24.444Z,66.20
2023-01-01T16:53:51.216Z,66.80
2023-01-01T16:56:18.084Z,66.50
2023-01-01T16:58:50.410Z,66.20
2023-01-01T17:01:19.175Z,66.40
2023-01-01T17:03:46.113Z,66.40
2023-01-01T17:06:12.893Z,65.30
2023-01-01T17:08:39.766Z,66.80
2023-01-01T17:11:15.194Z,66.90
2023-01-01T17:13:43.701Z,66.70
2023-01-01T17:16:12.049Z,66.80
2023-01-01T17:19:13.179Z,67.00
2023-01-01T17:21:25.796Z,67.00
2023-01-01T17:23:53.374Z,66.90
2023-01-01T17:26:23.139Z,67.30
2023-01-01T17:28:56.526Z,67.00
2023-01-01T17:31:28.580Z,66.30
2023-01-01T17:33:55.571Z,66.60
2023-01-01T17:36:23.384Z,66.40
2023-01-01T17:38:50.085Z,65.20
2023-01-01T17:41:17.614Z,65.50
2023-01-01T17:43:46.813Z,65.20
2023-01-01T17:46:15.001Z,65.20
2023-01-01T17:48:42.795Z,65.10
2023-01-01T17:51:10.109Z,66.00
2023-01-01T17:53:38.845Z,65.80
2023-01-01T17:56:06.830Z,65.80
2023-01-01T17:58:35.530Z,65.80
2023-01-01T18:01:27.590Z,66.90
2023-01-01T18:03:57.116Z,64.90
2023-01-01T18:06:24.323Z,65.10
2023-01-01T18:08:59.029Z,65.50
2023-01-01T18:11:28.561Z,64.70
2023-01-01T18:13:56.697Z,64.40
2023-01-01T18:16:24.384Z,63.60
2023-01-01T18:18:51.226Z,63.00
2023-01-01T18:21:22.242Z,63.30
2023-01-01T18:23:51.434Z,61.90
2023-01-01T18:26:19.052Z,62.20
2023-01-01T18:28:45.818Z,60.70
2023-01-01T18:31:15.594Z,61.80
2023-01-01T18:33:43.286Z,62.20
2023-01-01T18:36:13.562Z,60.80
2023-01-01T18:38:43.662Z,61.60
2023-01-01T18:42:02.271Z,61.60
2023-01-01T18:44:31.029Z,60.90
2023-01-01T18:47:05.982Z,60.50
2023-01-01T18:49:34.139Z,59.70
2023-01-01T18:52:15.046Z,60.50
2023-01-01T18:54:41.892Z,59.80
2023-01-01T18:57:28.605Z,60.10
2023-01-01T18:59:59.288Z,59.00
2023-01-01T19:02:39.320Z,59.60
2023-01-01T19:05:28.231Z,59.40
2023-01-01T19:08:06.682Z,59.70
2023-01-01T19:10:39.292Z,59.70
2023-01-01T19:13:17.870Z,59.80
2023-01-01T19:15:54.341Z,60.70
2023-01-01T19:18:24.082Z,61.10
2023-01-01T19:21:01.700Z,61.60
2023-01-01T19:23:30.316Z,61.20
2023-01-01T19:26:02.027Z,62.10
2023-01-01T19:28:37.576Z,61.90
2023-01-01T19:31:06.017Z,61.20
2023-01-01T19:33:32.883Z,61.20
2023-01-01T19:35:59.603Z,62.00
2023-01-01T19:38:26.350Z,62.30
2023-01-01T19:40:53.173Z,61.40
2023-01-01T19:43:20.005Z,61.90
2023-01-01T19:45:46.800Z,61.50
2023-01-01T19:48:13.562Z,61.10
2023-01-01T19:50:40.390Z,60.10
2023-01-01T19:53:07.068Z,61.20
2023-01-01T19:55:33.762Z,61.30
2023-01-01T19:58:00.436Z,61.80
2023-01-01T20:00:28.072Z,61.80
2023-01-01T20:02:55.778Z,60.40
2023-01-01T20:05:23.000Z,59.90
2023-01-01T20:07:50.055Z,60.30
2023-01-01T20:10:16.823Z,60.60
2023-01-01T20:12:45.432Z,61.10
2023-01-01T20:15:13.926Z,59.80
2023-01-01T20:17:41.700Z,60.00
2023-01-01T20:20:10.324Z,60.10
2023-01-01T20:22:37.072Z,59.10
2023-01-01T20:25:04.025Z,58.80
2023-01-01T20:27:30.708Z,58.90
2023-01-01T20:29:57.711Z,59.20
2023-01-01T20:32:28.660Z,58.90
2023-01-01T20:34:55.657Z,59.10
2023-01-01T20:37:37.429Z,59.20
2023-01-01T20:40:06.852Z,59.80
2023-01-01T20:42:33.865Z,60.90
2023-01-01T20:45:00.856Z,60.20
2023-01-01T20:47:27.809Z,59.80
2023-01-01T20:49:54.843Z,60.50
2023-01-01T20:52:21.961Z,60.20
2023-01-01T20:54:48.862Z,60.90
2023-01-01T20:57:16.026Z,61.00
2023-01-01T20:59:43.274Z,60.90
2023-01-01T21:02:11.708Z,61.00
2023-01-01T21:04:39.948Z,61.20
2023-01-01T21:07:11.674Z,61.50
2023-01-01T21:09:39.862Z,61.30
2023-01-01T21:12:07.427Z,60.70
2023-01-01T21:14:34.494Z,61.60
2023-01-01T21:17:14.863Z,61.60
2023-01-01T21:19:41.512Z,62.40
2023-01-01T21:22:12.439Z,62.10
2023-01-01T21:24:39.228Z,61.80
2023-01-01T21:27:13.349Z,62.10
2023-01-01T21:29:48.460Z,62.00
2023-01-01T21:32:39.295Z,62.50
2023-01-01T21:35:33.575Z,62.60
2023-01-01T21:38:02.474Z,62.90
2023-01-01T21:40:44.393Z,63.20
2023-01-01T21:43:37.144Z,62.70
2023-01-01T21:46:06.922Z,63.70
2023-01-01T21:48:38.545Z,64.10
2023-01-01T21:51:26.899Z,63.70
2023-01-01T21:54:14.504Z,63.50
2023-01-01T21:57:01.320Z,62.90
2023-01-01T21:59:33.705Z,63.20
2023-01-01T22:02:06.917Z,63.00
2023-01-01T22:04:36.576Z,63.60
2023-01-01T22:07:55.988Z,63.00
2023-01-01T22:10:25.421Z,62.90
2023-01-01T22:12:58.891Z,62.60
2023-01-01T22:15:25.537Z,62.40
2023-01-01T22:18:17.683Z,62.70
2023-01-01T22:20:46.058Z,62.50
2023-01-01T22:23:23.630Z,62.90
2023-01-01T22:25:52.355Z,61.80
2023-01-01T22:28:37.600Z,61.90
2023-01-01T22:31:04.393Z,61.80
2023-01-01T22:33:38.553Z,62.20
2023-01-01T22:36:20.937Z,61.30
2023-01-01T22:38:47.642Z,60.70
2023-01-01T22:41:14.901Z,61.20
2023-01-01T22:43:43.956Z,60.60
2023-01-01T22:46:33.530Z,60.70
2023-01-01T22:49:02.524Z,59.80
2023-01-01T22:51:36.964Z,60.00
2023-01-01T22:54:03.751Z,60.70
2023-01-01T22:56:30.447Z,60.60
2023-01-01T22:58:57.791Z,60.50
2023-01-01T23:01:24.588Z,60.70
2023-01-01T23:03:51.414Z,60.50
2023-01-01T23:06:19.098Z,60.90
2023-01-01T23:08:46.086Z,59.70
2023-01-01T23:11:13.033Z,59.70
2023-01-01T23:13:58.229Z,59.10
2023-01-01T23:16:24.950Z,59.30
2023-01-01T23:18:51.629Z,60.30
2023-01-01T23:21:26.288Z,59.50
2023-01-01T23:23:56.049Z,59.40
2023-01-01T23:26:23.354Z,59.40
2023-01-01T23:28:50.410Z,59.60
2023-01-01T23:31:24.747Z,59.50
2023-01-01T23:33:53.146Z,59.90
2023-01-01T23:36:20.137Z,59.60
2023-01-01T23:38:47.183Z,60.20
2023-01-01T23:41:13.857Z,60.10
2023-01-01T23:43:43.512Z,61.20
2023-01-01T23:46:13.088Z,60.70
2023-01-01T23:48:41.779Z,60.50
2023-01-01T23:51:08.938Z,60.00
2023-01-01T23:53:35.724Z,60.40
2023-01-01T23:56:02.660Z,60.90
2023-01-01T23:58:29.411Z,59.80
